»·PEaware :: N1615A KOAK-KSAC

N1615A :: KOAK-KSAC

FLIGHT INFORMATION

Flight Status: Arrived
Operator: Privately registered:
United States
More flights under this callsign
Pilot: Thomas M. (20110)
Aircraft: CESSNA 172 SKYHAWK
(C172)
More flights by this aircraft type
Origin: KOAK Metro Oakland Intl
United States
Destination: KSAC Sacramento Executive
United States
More flights between these airports :: More routes between these airports
Route: KCCR KSUU
File this flight plan on PilotEdge
Remarks:
Altitude:
(Current/Filed)
5,500ft
Speed:
(Current/Filed)
105kts
Departed: 22-Aug-18 06:41 PM
Arrived: 22-Aug-18 07:15 PM
Distance/Time
Traveled:
58nm/0:34
Distance/Time
To Go:
Arrived

Flight Plot

Page will automatically refresh every two minutes.

Flight plan parsing failed; only flown route is shown


Map Options




Map Legend


Flown Route
Filed Route
Departure Airport
Arrival Airport
Navaid (VOR, NDB)
Fix

Horizontal Profiles

Position Reports

Time Latitude Longitude Heading Altitude Ground
Speed
22-Aug-18 18:21 37.729146 -122.208389 30 9ft 0kts
22-Aug-18 18:22 37.729146 -122.208389 30 9ft 0kts
22-Aug-18 18:23 37.729146 -122.208389 30 9ft 0kts
22-Aug-18 18:24 37.729148 -122.208388 30 9ft 0kts
22-Aug-18 18:25 37.729150 -122.208386 31 9ft 0kts
22-Aug-18 18:26 37.729159 -122.208379 32 9ft 0kts
22-Aug-18 18:27 37.729172 -122.208368 32 9ft 0kts
22-Aug-18 18:28 37.729174 -122.208367 33 9ft 0kts
22-Aug-18 18:29 37.729176 -122.208365 33 9ft 0kts
22-Aug-18 18:30 37.729153 -122.208261 176 9ft 0kts
22-Aug-18 18:31 37.728800 -122.208366 193 9ft 1kts
22-Aug-18 18:32 37.728246 -122.208363 177 9ft 1kts
22-Aug-18 18:33 37.727115 -122.208669 144 9ft 0kts
22-Aug-18 18:34 37.727070 -122.208620 134 9ft 2kts
22-Aug-18 18:35 37.726497 -122.206954 111 9ft 5kts
22-Aug-18 18:36 37.725719 -122.204591 109 9ft 6kts
22-Aug-18 18:37 37.724593 -122.203874 206 9ft 13kts
22-Aug-18 18:38 37.723467 -122.205715 28 9ft 6kts
22-Aug-18 18:39 37.724363 -122.205298 21 9ft 0kts
22-Aug-18 18:40 37.724365 -122.205297 21 9ft 0kts
22-Aug-18 18:41 37.725104 -122.205609 292 9ft 12kts
22-Aug-18 18:42 37.731145 -122.223951 287 749ft 68kts
22-Aug-18 18:43 37.738151 -122.250419 292 1985ft 75kts
22-Aug-18 18:44 37.758037 -122.251763 29 2384ft 136kts
22-Aug-18 18:45 37.782977 -122.220611 50 2373ft 105kts
22-Aug-18 18:46 37.805709 -122.185277 47 2486ft 134kts
22-Aug-18 18:47 37.830062 -122.153320 33 2521ft 120kts
22-Aug-18 18:48 37.859591 -122.132889 21 2584ft 124kts
22-Aug-18 18:49 37.890810 -122.114587 21 2580ft 122kts
22-Aug-18 18:50 37.923792 -122.095366 21 2640ft 133kts
22-Aug-18 18:51 37.955108 -122.077101 21 3402ft 120kts
22-Aug-18 18:52 37.986257 -122.060158 21 4291ft 113kts
22-Aug-18 18:53 38.013759 -122.047029 22 5313ft 100kts
22-Aug-18 18:54 38.044698 -122.031351 24 5482ft 138kts
22-Aug-18 18:55 38.078410 -122.014629 23 5456ft 126kts
22-Aug-18 18:56 38.110935 -121.998330 25 5457ft 126kts
22-Aug-18 18:57 38.142897 -121.983954 20 5459ft 128kts
22-Aug-18 18:58 38.176413 -121.967638 21 5426ft 128kts
22-Aug-18 18:59 38.201289 -121.936657 53 5417ft 129kts
22-Aug-18 19:00 38.223807 -121.903931 51 5424ft 121kts
22-Aug-18 19:01 38.245920 -121.872614 50 5312ft 120kts
22-Aug-18 19:02 38.270242 -121.838211 49 4423ft 130kts
22-Aug-18 19:03 38.292957 -121.805260 49 3700ft 122kts
22-Aug-18 19:04 38.317013 -121.771372 47 3027ft 132kts
22-Aug-18 19:05 38.340940 -121.737964 46 2547ft 127kts
22-Aug-18 19:06 38.364548 -121.704052 51 2213ft 126kts
22-Aug-18 19:07 38.387473 -121.670694 50 1923ft 125kts
22-Aug-18 19:08 38.410185 -121.637909 52 1747ft 124kts
22-Aug-18 19:09 38.432338 -121.606607 51 1633ft 113kts
22-Aug-18 19:10 38.454391 -121.574744 48 1257ft 120kts
22-Aug-18 19:11 38.477456 -121.545082 44 996ft 116kts
22-Aug-18 19:12 38.501316 -121.518210 36 979ft 113kts
22-Aug-18 19:13 38.527237 -121.499081 26 828ft 91kts
22-Aug-18 19:14 38.531961 -121.479859 165 431ft 57kts
22-Aug-18 19:15 38.518595 -121.489642 210 59ft 54kts
22-Aug-18 19:16 38.512831 -121.494782 255 27ft 12kts
22-Aug-18 19:17 38.512819 -121.495174 278 27ft 0kts
22-Aug-18 19:18 38.511835 -121.496793 216 27ft 11kts
22-Aug-18 19:19 38.510997 -121.498798 218 27ft 1kts
22-Aug-18 19:20 38.510892 -121.499854 268 27ft 2kts
22-Aug-18 19:21 38.510885 -121.500037 265 27ft 0kts

Navigation Log

Ident Type
Flight plan parsing failed, navigation log unavailable